Impacts METAR Board
IDs:

KDTW - Detroit Metro/Wayne, MI, US

Updated at: 2000 UTC 15 Jun 2019
Potential Impact None Slight Moderate High
Time 15/08Z 15/09Z 15/10Z 15/11Z 15/12Z 15/13Z 15/14Z 15/15Z 15/16Z 15/17Z 15/18Z 15/19Z 15/20Z
Temp66 65 65 63 65 65 65 65 66 67 71 69 68
Dewpt47 48 50 52 50 52 54 55 56 57 59 59 60
Altim29.89 29.90 29.90 29.89 29.89 29.88 29.88 29.88 29.88 29.88 29.86 29.86 29.86
VIS10 10 10 8 10 10 10 10 10 10 10 10 10
CIG140 70 70 75 50 37 30 35 22 21 40 21 17
CoverOVCOVCOVCOVCOVCOVCOVCOVCOVCOVCOVCOVCOVC
FltCatVFRVFRVFRVFRVFRVFRMVFRVFRMVFRMVFRVFRMVFRMVFR
WX-------RA------------------
WDir220220220190210210220220230230220220210
WSpd15 15 9 8 15 15 13 17 13 12 16 14 14
WGst23 -- -- -- 22 25 -- 22 -- -- 20 -- --
Raw hourly METARs
KDTW 150753Z 22015G23KT 10SM FEW110 BKN140 OVC200 19/08 A2989 RMK AO2 SLP120 T01890083
KDTW 150853Z 22015KT 10SM SCT050 BKN070 OVC120 18/09 A2990 RMK AO2 SLP121 T01830089 55004
KDTW 150953Z 22009KT 10SM FEW050 OVC070 18/10 A2990 RMK AO2 RAB0858E21 SLP121 P0000 T01830100 $
KDTW 151053Z 19008KT 8SM -RA OVC075 17/11 A2989 RMK AO2 RAB44 SLP119 P0000 T01720111 $
KDTW 151153Z 21015G22KT 10SM FEW040 BKN050 OVC065 18/10 A2989 RMK AO2 RAE08 SLP118 P0000 60000 T01830100 10194 20172 58002 $
KDTW 151253Z 21015G25KT 10SM OVC037 18/11 A2988 RMK AO2 SLP116 T01830111 $
KDTW 151353Z 22013KT 10SM FEW020 OVC030 18/12 A2988 RMK AO2 SLP115 T01830122 $
KDTW 151453Z 22017G22KT 10SM FEW020 BKN035 OVC045 18/13 A2988 RMK AO2 SLP115 T01830128 56003 $
KDTW 151553Z 23013KT 10SM OVC022 19/13 A2988 RMK AO2 SLP115 T01890133 $
KDTW 151653Z 23012KT 10SM BKN021 OVC035 19/14 A2988 RMK AO2 SLP115 T01940139 $
KDTW 151753Z 22016G20KT 10SM SCT020 OVC040 22/15 A2986 RMK AO2 RAB04E08 SLP110 P0000 60000 T02170150 10217 20183 58005 $
KDTW 151853Z 22014KT 10SM BKN021 OVC040 21/15 A2986 RMK AO2 SLP110 T02060150 $
KDTW 151953Z 21014KT 10SM BKN017 OVC025 20/16 A2986 RMK AO2 SLP110 T02000156 $



Page loaded:  20:41 UTC  |   01:41 PM Pacific  |   02:41 PM Mountain  |   03:41 PM Central  |   04:41 PM Eastern

 

ADVISORIES

FORECASTS

FORECASTS

OBSERVATIONS

USER TOOLS

ABOUT US